Hovedside
METAR-TAF:

METAR-TAF

Lufthavner :

Bhopal, India

breddegrad: 23-17-15N, lengdegrad: 77-20-15E, høyde over havet: 524 m

Gjeldene værobservasjon

Denne rapporten ble laget for 1 time og 30 minutter siden, klokken 21:00 UTC
Vind 8 kt fra Sørvest
Temperatur 29°C
Luftfuktighet 58%
Trykk 1006 hPa
Sikt: 6000 m
Få skyer i en høyde av 2000 ft
Spredte skyer i en høyde av 10000 ft

METAR: VABP 142100Z 23008KT 6000 FEW020 SCT100 29/20 Q1006 NOSIG

Tid: 04:00 (22:30 UTC)

Varsel

Denne rapporten ble laget for 2 timer og 30 minutter siden, klokken 20:00 UTC
Varsel gyldig fra 14. klokken 21 UTC til 15. klokken 06 UTC
Vind 10 kt fra Sør-sørvest
Sikt: 6000 m
Få skyer i en høyde av 2000 ft
Spredte skyer i en høyde av 10000 ft
Blir
fra 15. klokken 01 UTC til 15. klokken 03 UTC
Vind 12 kt fra Vest
Blir
fra 15. klokken 04 UTC til 15. klokken 06 UTC
Vind 10 kt fra Nordvest

TAF: VABP 142000Z 1421/1506 20010KT 6000 FEW020 SCT100 BECMG 1501/1503 27012KT BECMG 1504/1506 32010KT

Værobservasjoner og værvarsel for over 4000 flyplasser (METAR- og TAF-rapporter).

Tilgjengelige stasjoner er representert av de røde og gule prikkene på kartet.

Hold musepekeren over prikken for å se navnet på stasjonen.

Klikk så for å se værobservasjoner og -varsler.

For å forandre kartet kan du klikke på den grønne knappen med svart kryss for å zoome inn, på den grønne knappen med strek for å zoome ut, eller på de grønne pilene for å se tilstøtende kart.


METAR-TAF: